South Wardsboro, Vermont
Current Conditions -  °F | °C
As of 6:54 AM on Thursday 18 Dec 2014 (Local Time) from KDDH Reporting Station
Light Snow Light Snow  
Wind Chill: 24°   Ceiling: 3400
Heat Index: 32°   Visibility: 5mi
Dew Point: 28°   Wind: 9mph
Humidity: 85%   Direction: 240°WSW
Pressure: 29.83"   Gusts: 18mph
Location:  43.0205°N, 72.8064°W
Report Text: KDDH 181154Z AUTO 24008G16KT 200V280 5SM -SN BR SCT010 OVC034 00/M02 A2983 RMK AO2 SLP107 P0000 60003 70007 T00001022 10006 20000 51010
Loading
Personal Weather Stations






























Interactive Weather Map New forecast layout! Learn more

10-Day Weather Forecast

Advertisements
Track Severe Weather on mobile